Glendive, MT (59330)

4:03 AM MDT on September 15, 2014 (GMT -0600)
Dawson Community | Change Station
CLOSE
Current Station
Airport
Location: Glendive,
Elevation: 2457 ft
Nearby Weather Stations

Elev 2457 ft 47.14 °N, 104.81 °W | Updated 8 minutes ago

Clear
Clear
36 °F
Feels Like 33 °F
N
4
Wind Variable Wind from SW

Today
High -- | Low -- °F
--% Chance of Precip.
Yesterday
High -- | Low -- °F
Precip. -- in
6:36 AM 7:10 PM
Waning Gibbous, 57% visible
Pressure 30.24 in
Visibility 10.0 miles
Clouds Clear
Windchill 33 °F
Dew Point 28 °F
Humidity 75%
Rainfall 0.00 in
Snow Depth 0 in , 1 in
UV 0 out of 12
Pollen 4.90 out of 12
Air Quality Not available.
Flu Activity Not available.
METAR KGDV 150955Z AUTO 23003KT 10SM CLR 02/M02 A3024 RMK AO1

More Conditions Fewer Conditions

Pressure 30.24 in
Visibility 10.0 miles
Clouds Clear
Windchill 33 °F
Dew Point 28 °F
Humidity 75%
Rainfall 0.00 in
Snow Depth 0 in , 1 in
UV 0 out of 12
Pollen 4.90 out of 12
Air Quality Not available.
Flu Activity Not available.
METAR KGDV 150955Z AUTO 23003KT 10SM CLR 02/M02 A3024 RMK AO1

More Conditions Fewer Conditions

10-Day Weather Forecast

Almanac

Astronomy

Sep. 15, 2014 Rise Set
Actual Time 6:36 AM MDT 7:10 PM MDT
Civil Twilight 6:05 AM MDT 7:41 PM MDT
Nautical Twilight 5:29 AM MDT 8:17 PM MDT
Astronomical Twilight 4:51 AM MDT 8:55 PM MDT
Moon 11:32 PM MDT 2:01 PM MDT
Length of Visible Light 13h 35m
Length of Day
12h 34m
Tomorrow will be 3m 20s shorter.
Waning Gibbous, 57% of the Moon is Illuminated
Today
Waning Gibbous
Sep 15
Last Quarter
Sep 24
New
Oct 1
First Quarter
Oct 8
Full

Today's Extremes

State Highs State Lows

Community

WunderPhotos

Upload Photos

1,753,428 photos uploaded!

WunderBlogs® & News

Nearby

Snow Depth

Station Depth Elevation
Deadman Creek 0 in 6450 ft
Pickfoot Creek 0 in 6650 ft
Many Glacier 0 in 4900 ft
Lubrecht Flume 0 in 4680 ft
Tepee Creek 0 in 8000 ft

Earthquake Activity

City Distance Mag. Time & Date
No recent earthquake activity has been reported nearby.
Minimum magnitude displayed is 2.5.

Coastal Water Temperatures

Place Temperature
No Stations Reporting

Nearby Weather Stations